sensor_id;sensor_type;location;lat;lon;timestamp;pressure;altitude;pressure_sealevel;temperature;humidity
52249;BME280;38541;48.130;8.378;2022-10-16T00:00:53;92728.78;;;12.77;81.54
52249;BME280;38541;48.130;8.378;2022-10-16T00:03:19;92720.38;;;12.75;81.44
52249;BME280;38541;48.130;8.378;2022-10-16T00:05:45;92727.22;;;12.76;81.43
52249;BME280;38541;48.130;8.378;2022-10-16T00:08:12;92728.84;;;12.72;81.52
52249;BME280;38541;48.130;8.378;2022-10-16T00:10:40;92726.50;;;12.70;81.94
52249;BME280;38541;48.130;8.378;2022-10-16T00:13:07;92727.53;;;12.69;81.91
52249;BME280;38541;48.130;8.378;2022-10-16T00:15:35;92731.47;;;12.72;82.06
52249;BME280;38541;48.130;8.378;2022-10-16T00:18:04;92727.53;;;12.69;81.86
52249;BME280;38541;48.130;8.378;2022-10-16T00:20:33;92728.09;;;12.66;81.83
52249;BME280;38541;48.130;8.378;2022-10-16T00:23:00;92718.91;;;12.64;81.88
52249;BME280;38541;48.130;8.378;2022-10-16T00:25:27;92720.22;;;12.61;82.11
52249;BME280;38541;48.130;8.378;2022-10-16T00:27:53;92732.09;;;12.59;81.89
52249;BME280;38541;48.130;8.378;2022-10-16T00:30:20;92718.94;;;12.53;81.67
52249;BME280;38541;48.130;8.378;2022-10-16T00:32:46;92721.59;;;12.53;82.01
52249;BME280;38541;48.130;8.378;2022-10-16T00:35:13;92727.38;;;12.55;81.83
52249;BME280;38541;48.130;8.378;2022-10-16T00:37:39;92730.00;;;12.55;81.83
52249;BME280;38541;48.130;8.378;2022-10-16T00:40:06;92738.97;;;12.54;81.82
52249;BME280;38541;48.130;8.378;2022-10-16T00:42:32;92741.34;;;12.56;81.98
52249;BME280;38541;48.130;8.378;2022-10-16T00:44:59;92743.69;;;12.58;82.25
52249;BME280;38541;48.130;8.378;2022-10-16T00:50:08;92743.97;;;12.56;81.98
52249;BME280;38541;48.130;8.378;2022-10-16T00:52:35;92733.47;;;12.51;82.17
52249;BME280;38541;48.130;8.378;2022-10-16T00:55:03;92735.28;;;12.55;81.64
52249;BME280;38541;48.130;8.378;2022-10-16T00:57:30;92739.25;;;12.53;81.75
52249;BME280;38541;48.130;8.378;2022-10-16T00:59:57;92741.91;;;12.48;81.59
52249;BME280;38541;48.130;8.378;2022-10-16T01:02:24;92750.31;;;12.50;81.69
52249;BME280;38541;48.130;8.378;2022-10-16T01:04:53;92747.97;;;12.48;81.72
52249;BME280;38541;48.130;8.378;2022-10-16T01:07:48;92755.38;;;12.46;81.64
52249;BME280;38541;48.130;8.378;2022-10-16T01:10:36;92752.75;;;12.46;82.41
52249;BME280;38541;48.130;8.378;2022-10-16T01:13:09;92743.25;;;12.45;82.64
52249;BME280;38541;48.130;8.378;2022-10-16T01:15:42;92746.66;;;12.46;82.50
52249;BME280;38541;48.130;8.378;2022-10-16T01:18:32;92749.59;;;12.44;82.22
52249;BME280;38541;48.130;8.378;2022-10-16T01:21:06;92755.94;;;12.38;81.92
52249;BME280;38541;48.130;8.378;2022-10-16T01:29:12;92760.69;;;12.36;82.00
52249;BME280;38541;48.130;8.378;2022-10-16T01:31:44;92765.97;;;12.36;82.01
52249;BME280;38541;48.130;8.378;2022-10-16T01:34:18;92764.91;;;12.37;82.01
52249;BME280;38541;48.130;8.378;2022-10-16T01:36:51;92761.19;;;12.38;82.26
52249;BME280;38541;48.130;8.378;2022-10-16T01:39:22;92762.78;;;12.39;82.32
52249;BME280;38541;48.130;8.378;2022-10-16T01:41:54;92759.63;;;12.37;82.31
52249;BME280;38541;48.130;8.378;2022-10-16T01:44:25;92763.63;;;12.34;82.32
52249;BME280;38541;48.130;8.378;2022-10-16T01:46:55;92771.25;;;12.31;81.74
52249;BME280;38541;48.130;8.378;2022-10-16T01:49:23;92765.25;;;12.20;80.83
52249;BME280;38541;48.130;8.378;2022-10-16T01:51:54;92767.38;;;12.12;80.44
52249;BME280;38541;48.130;8.378;2022-10-16T01:54:26;92766.34;;;12.08;80.35
52249;BME280;38541;48.130;8.378;2022-10-16T01:56:55;92764.00;;;12.07;80.57
52249;BME280;38541;48.130;8.378;2022-10-16T01:59:25;92762.69;;;12.04;81.12
52249;BME280;38541;48.130;8.378;2022-10-16T02:01:58;92762.69;;;12.04;81.38
52249;BME280;38541;48.130;8.378;2022-10-16T02:04:36;92763.75;;;12.03;81.64
52249;BME280;38541;48.130;8.378;2022-10-16T02:07:04;92758.75;;;12.07;82.02
52249;BME280;38541;48.130;8.378;2022-10-16T02:09:35;92754.25;;;12.07;82.11
52249;BME280;38541;48.130;8.378;2022-10-16T02:12:08;92749.78;;;12.08;82.32
52249;BME280;38541;48.130;8.378;2022-10-16T02:14:38;92743.97;;;12.11;82.42
52249;BME280;38541;48.130;8.378;2022-10-16T02:17:14;92749.25;;;12.11;82.49
52249;BME280;38541;48.130;8.378;2022-10-16T02:19:41;92743.97;;;12.11;82.36
52249;BME280;38541;48.130;8.378;2022-10-16T02:22:12;92751.88;;;12.11;82.40
52249;BME280;38541;48.130;8.378;2022-10-16T02:24:50;92749.53;;;12.04;81.88
52249;BME280;38541;48.130;8.378;2022-10-16T02:29:53;92748.47;;;12.00;82.09
52249;BME280;38541;48.130;8.378;2022-10-16T02:32:29;92741.88;;;12.03;82.59
52249;BME280;38541;48.130;8.378;2022-10-16T02:34:58;92751.38;;;12.04;82.79
52249;BME280;38541;48.130;8.378;2022-10-16T02:37:27;92752.97;;;12.05;82.60
52249;BME280;38541;48.130;8.378;2022-10-16T02:39:56;92754.03;;;12.04;83.08
52249;BME280;38541;48.130;8.378;2022-10-16T02:42:34;92752.69;;;12.06;83.17
52249;BME280;38541;48.130;8.378;2022-10-16T02:45:03;92770.03;;;12.07;83.23
52249;BME280;38541;48.130;8.378;2022-10-16T02:47:29;92768.22;;;12.08;83.75
52249;BME280;38541;48.130;8.378;2022-10-16T02:49:56;92769.50;;;12.10;83.72
52249;BME280;38541;48.130;8.378;2022-10-16T02:52:22;92779.25;;;12.10;83.65
52249;BME280;38541;48.130;8.378;2022-10-16T02:54:49;92780.88;;;12.06;83.35
52249;BME280;38541;48.130;8.378;2022-10-16T02:57:16;92783.00;;;12.04;83.57
52249;BME280;38541;48.130;8.378;2022-10-16T02:59:42;92780.63;;;12.02;83.46
52249;BME280;38541;48.130;8.378;2022-10-16T03:02:09;92775.84;;;12.04;83.57
52249;BME280;38541;48.130;8.378;2022-10-16T03:04:36;92769.28;;;12.07;83.54
52249;BME280;38541;48.130;8.378;2022-10-16T03:07:03;92767.44;;;12.02;82.83
52249;BME280;38541;48.130;8.378;2022-10-16T03:09:29;92767.16;;;11.98;82.77
52249;BME280;38541;48.130;8.378;2022-10-16T03:11:56;92765.06;;;11.95;82.17
52249;BME280;38541;48.130;8.378;2022-10-16T03:14:22;92767.69;;;11.95;82.24
52249;BME280;38541;48.130;8.378;2022-10-16T03:16:49;92778.22;;;11.95;82.38
52249;BME280;38541;48.130;8.378;2022-10-16T03:19:17;92767.19;;;11.93;82.54
52249;BME280;38541;48.130;8.378;2022-10-16T03:21:44;92775.09;;;11.93;82.40
52249;BME280;38541;48.130;8.378;2022-10-16T03:24:11;92774.03;;;11.94;82.39
52249;BME280;38541;48.130;8.378;2022-10-16T03:26:37;92782.97;;;11.93;82.36
52249;BME280;38541;48.130;8.378;2022-10-16T03:29:04;92781.44;;;11.87;82.28
52249;BME280;38541;48.130;8.378;2022-10-16T03:31:31;92778.50;;;11.89;82.34
52249;BME280;38541;48.130;8.378;2022-10-16T03:33:58;92779.31;;;11.89;82.24
52249;BME280;38541;48.130;8.378;2022-10-16T03:36:24;92780.88;;;11.90;82.59
52249;BME280;38541;48.130;8.378;2022-10-16T03:38:51;92775.09;;;11.93;82.87
52249;BME280;38541;48.130;8.378;2022-10-16T03:41:17;92772.44;;;11.93;83.00
52249;BME280;38541;48.130;8.378;2022-10-16T03:43:44;92765.09;;;11.90;83.03
52249;BME280;38541;48.130;8.378;2022-10-16T03:46:10;92772.72;;;11.92;82.83
52249;BME280;38541;48.130;8.378;2022-10-16T03:48:37;92765.63;;;11.87;82.63
52249;BME280;38541;48.130;8.378;2022-10-16T03:51:03;92760.66;;;11.80;82.20
52249;BME280;38541;48.130;8.378;2022-10-16T03:53:30;92769.84;;;11.83;82.54
52249;BME280;38541;48.130;8.378;2022-10-16T03:55:56;92768.78;;;11.84;82.68
52249;BME280;38541;48.130;8.378;2022-10-16T03:58:23;92770.38;;;11.85;82.64
52249;BME280;38541;48.130;8.378;2022-10-16T04:00:49;92774.03;;;11.84;82.65
52249;BME280;38541;48.130;8.378;2022-10-16T04:03:16;92772.75;;;11.81;83.05
52249;BME280;38541;48.130;8.378;2022-10-16T04:05:43;92760.41;;;11.77;82.62
52249;BME280;38541;48.130;8.378;2022-10-16T04:08:09;92770.16;;;11.76;82.47
52249;BME280;38541;48.130;8.378;2022-10-16T04:10:36;92770.91;;;11.77;82.81
52249;BME280;38541;48.130;8.378;2022-10-16T04:13:02;92763.53;;;11.79;83.02
52249;BME280;38541;48.130;8.378;2022-10-16T04:15:29;92768.00;;;11.83;83.10
52249;BME280;38541;48.130;8.378;2022-10-16T04:17:55;92780.63;;;11.87;83.30
52249;BME280;38541;48.130;8.378;2022-10-16T04:20:22;92781.94;;;11.89;83.74
52249;BME280;38541;48.130;8.378;2022-10-16T04:22:48;92784.59;;;11.89;83.74
52249;BME280;38541;48.130;8.378;2022-10-16T04:25:15;92784.03;;;11.92;84.18
52249;BME280;38541;48.130;8.378;2022-10-16T04:27:41;92787.19;;;11.94;84.14
52249;BME280;38541;48.130;8.378;2022-10-16T04:30:12;92780.09;;;11.95;84.49
52249;BME280;38541;48.130;8.378;2022-10-16T04:32:39;92793.53;;;11.88;83.63
52249;BME280;38541;48.130;8.378;2022-10-16T04:35:06;92789.59;;;11.80;83.10
52249;BME280;38541;48.130;8.378;2022-10-16T04:37:33;92803.53;;;11.81;83.17
52249;BME280;38541;48.130;8.378;2022-10-16T04:39:59;92800.41;;;11.79;83.04
52249;BME280;38541;48.130;8.378;2022-10-16T04:42:26;92800.94;;;11.76;83.02
52249;BME280;38541;48.130;8.378;2022-10-16T04:44:52;92805.13;;;11.77;83.20
52249;BME280;38541;48.130;8.378;2022-10-16T04:47:19;92802.50;;;11.77;82.89
52249;BME280;38541;48.130;8.378;2022-10-16T04:49:45;92803.31;;;11.77;83.07
52249;BME280;38541;48.130;8.378;2022-10-16T04:52:12;92796.72;;;11.80;83.04
52249;BME280;38541;48.130;8.378;2022-10-16T04:54:38;92799.34;;;11.80;83.45
52249;BME280;38541;48.130;8.378;2022-10-16T04:57:05;92804.06;;;11.83;83.58
52249;BME280;38541;48.130;8.378;2022-10-16T04:59:31;92802.22;;;11.83;83.55
52249;BME280;38541;48.130;8.378;2022-10-16T05:01:58;92804.59;;;11.85;83.97
52249;BME280;38541;48.130;8.378;2022-10-16T05:04:24;92810.38;;;11.82;84.08
52249;BME280;38541;48.130;8.378;2022-10-16T05:06:51;92806.19;;;11.76;83.93
52249;BME280;38541;48.130;8.378;2022-10-16T05:09:17;92810.69;;;11.75;83.74
52249;BME280;38541;48.130;8.378;2022-10-16T05:11:44;92812.53;;;11.75;83.29
52249;BME280;38541;48.130;8.378;2022-10-16T05:14:10;92810.44;;;11.72;83.43
52249;BME280;38541;48.130;8.378;2022-10-16T05:16:42;92798.56;;;11.74;83.41
52249;BME280;38541;48.130;8.378;2022-10-16T05:19:08;92806.44;;;11.74;83.70
52249;BME280;38541;48.130;8.378;2022-10-16T05:21:55;92810.69;;;11.75;83.54
52249;BME280;38541;48.130;8.378;2022-10-16T05:24:21;92802.25;;;11.73;83.32
52249;BME280;38541;48.130;8.378;2022-10-16T05:26:48;92805.16;;;11.72;83.29
52249;BME280;38541;48.130;8.378;2022-10-16T05:29:14;92807.50;;;11.73;83.17
52249;BME280;38541;48.130;8.378;2022-10-16T05:31:41;92805.16;;;11.72;83.22
52249;BME280;38541;48.130;8.378;2022-10-16T05:34:07;92809.38;;;11.67;83.10
52249;BME280;38541;48.130;8.378;2022-10-16T05:36:34;92807.00;;;11.66;83.26
52249;BME280;38541;48.130;8.378;2022-10-16T05:39:00;92817.03;;;11.64;83.31
52249;BME280;38541;48.130;8.378;2022-10-16T05:41:27;92815.44;;;11.63;83.81
52249;BME280;38541;48.130;8.378;2022-10-16T05:43:54;92823.59;;;11.56;84.05
52249;BME280;38541;48.130;8.378;2022-10-16T05:46:20;92830.44;;;11.57;84.50
52249;BME280;38541;48.130;8.378;2022-10-16T05:48:47;92837.03;;;11.60;84.72
52249;BME280;38541;48.130;8.378;2022-10-16T05:51:14;92842.28;;;11.65;84.96
52249;BME280;38541;48.130;8.378;2022-10-16T05:53:41;92838.34;;;11.67;85.09
52249;BME280;38541;48.130;8.378;2022-10-16T05:56:13;92843.59;;;11.73;85.14
52249;BME280;38541;48.130;8.378;2022-10-16T05:58:40;92837.53;;;11.77;85.14
52249;BME280;38541;48.130;8.378;2022-10-16T06:01:10;92835.13;;;11.81;85.28
52249;BME280;38541;48.130;8.378;2022-10-16T06:03:37;92829.31;;;11.84;84.89
52249;BME280;38541;48.130;8.378;2022-10-16T06:06:12;92825.13;;;11.88;84.93
52249;BME280;38541;48.130;8.378;2022-10-16T06:08:39;92828.00;;;11.92;84.52
52249;BME280;38541;48.130;8.378;2022-10-16T06:11:11;92831.44;;;11.92;83.87
52249;BME280;38541;48.130;8.378;2022-10-16T06:13:38;92826.44;;;11.96;83.80
52249;BME280;38541;48.130;8.378;2022-10-16T06:16:09;92839.84;;;11.94;83.05
52249;BME280;38541;48.130;8.378;2022-10-16T06:18:36;92837.47;;;11.93;83.19
52249;BME280;38541;48.130;8.378;2022-10-16T06:21:11;92843.00;;;11.96;83.33
52249;BME280;38541;48.130;8.378;2022-10-16T06:23:38;92846.44;;;12.02;83.80
52249;BME280;38541;48.130;8.378;2022-10-16T06:26:15;92847.75;;;12.10;83.85
52249;BME280;38541;48.130;8.378;2022-10-16T06:28:42;92856.13;;;12.22;84.19
52249;BME280;38541;48.130;8.378;2022-10-16T06:31:09;92847.41;;;12.32;84.68
52249;BME280;38541;48.130;8.378;2022-10-16T06:33:37;92852.34;;;12.44;84.97
52249;BME280;38541;48.130;8.378;2022-10-16T06:36:15;92852.84;;;12.51;84.34
52249;BME280;38541;48.130;8.378;2022-10-16T06:38:42;92858.06;;;12.56;84.04
52249;BME280;38541;48.130;8.378;2022-10-16T06:41:14;92859.66;;;12.63;83.70
52249;BME280;38541;48.130;8.378;2022-10-16T06:43:41;92872.50;;;12.69;83.27
52249;BME280;38541;48.130;8.378;2022-10-16T06:46:10;92874.63;;;12.73;83.54
52249;BME280;38541;48.130;8.378;2022-10-16T06:48:37;92873.53;;;12.79;83.20
52249;BME280;38541;48.130;8.378;2022-10-16T06:51:06;92886.44;;;12.80;84.03
52249;BME280;38541;48.130;8.378;2022-10-16T06:53:34;92885.88;;;12.89;83.75
52249;BME280;38541;48.130;8.378;2022-10-16T06:56:24;92889.03;;;12.91;83.53
52249;BME280;38541;48.130;8.378;2022-10-16T06:58:52;92894.81;;;12.93;83.72
52249;BME280;38541;48.130;8.378;2022-10-16T07:01:21;92891.06;;;13.04;83.59
52249;BME280;38541;48.130;8.378;2022-10-16T07:03:48;92900.47;;;13.16;83.30
52249;BME280;38541;48.130;8.378;2022-10-16T07:06:18;92900.97;;;13.23;82.67
52249;BME280;38541;48.130;8.378;2022-10-16T07:08:45;92901.72;;;13.29;82.03
52249;BME280;38541;48.130;8.378;2022-10-16T07:11:15;92899.28;;;13.37;81.85
52249;BME280;38541;48.130;8.378;2022-10-16T07:13:42;92900.28;;;13.47;81.55
52249;BME280;38541;48.130;8.378;2022-10-16T07:16:14;92907.28;;;13.62;81.10
52249;BME280;38541;48.130;8.378;2022-10-16T07:18:42;92912.47;;;13.77;80.19
52249;BME280;38541;48.130;8.378;2022-10-16T07:21:13;92910.81;;;13.87;79.15
52249;BME280;38541;48.130;8.378;2022-10-16T07:23:41;92924.47;;;13.94;78.05
52249;BME280;38541;48.130;8.378;2022-10-16T07:26:08;92929.69;;;13.99;77.71
52249;BME280;38541;48.130;8.378;2022-10-16T07:28:35;92926.78;;;14.01;77.46
52249;BME280;38541;48.130;8.378;2022-10-16T07:31:03;92939.44;;;14.04;77.04
52249;BME280;38541;48.130;8.378;2022-10-16T07:33:31;92938.59;;;14.08;75.25
52249;BME280;38541;48.130;8.378;2022-10-16T07:35:58;92939.81;;;14.21;75.25
52249;BME280;38541;48.130;8.378;2022-10-16T07:38:25;92939.19;;;14.30;76.03
52249;BME280;38541;48.130;8.378;2022-10-16T07:41:03;92934.38;;;14.37;75.20
52249;BME280;38541;48.130;8.378;2022-10-16T07:43:30;92944.03;;;14.47;74.53
52249;BME280;38541;48.130;8.378;2022-10-16T07:45:57;92951.31;;;14.60;73.78
52249;BME280;38541;48.130;8.378;2022-10-16T07:48:31;92949.88;;;14.73;73.82
52249;BME280;38541;48.130;8.378;2022-10-16T07:51:04;92950.81;;;14.82;72.48
52249;BME280;38541;48.130;8.378;2022-10-16T07:53:31;92951.47;;;14.93;72.61
52249;BME280;38541;48.130;8.378;2022-10-16T07:55:59;92950.84;;;15.02;71.95
52249;BME280;38541;48.130;8.378;2022-10-16T07:58:27;92949.47;;;15.04;71.92
52249;BME280;38541;48.130;8.378;2022-10-16T08:00:54;92956.88;;;15.07;72.01
52249;BME280;38541;48.130;8.378;2022-10-16T08:03:21;92955.44;;;15.15;71.08
52249;BME280;38541;48.130;8.378;2022-10-16T08:05:48;92960.88;;;15.24;71.28
52249;BME280;38541;48.130;8.378;2022-10-16T08:08:16;92969.03;;;15.27;69.81
52249;BME280;38541;48.130;8.378;2022-10-16T08:10:42;92973.91;;;15.39;68.21
52249;BME280;38541;48.130;8.378;2022-10-16T08:13:09;92972.78;;;15.46;67.45
52249;BME280;38541;48.130;8.378;2022-10-16T08:15:36;92976.84;;;15.57;67.23
52249;BME280;38541;48.130;8.378;2022-10-16T08:18:04;92971.69;;;15.66;67.41
52249;BME280;38541;48.130;8.378;2022-10-16T08:20:31;92972.69;;;15.70;66.68
52249;BME280;38541;48.130;8.378;2022-10-16T08:22:59;92978.56;;;15.67;65.42
52249;BME280;38541;48.130;8.378;2022-10-16T08:25:26;92978.19;;;15.74;64.90
52249;BME280;38541;48.130;8.378;2022-10-16T08:27:52;92985.69;;;15.86;64.41
52249;BME280;38541;48.130;8.378;2022-10-16T08:30:21;92985.94;;;15.89;63.88
52249;BME280;38541;48.130;8.378;2022-10-16T08:32:48;92980.06;;;15.92;62.98
52249;BME280;38541;48.130;8.378;2022-10-16T08:35:15;92996.38;;;16.00;63.34
52249;BME280;38541;48.130;8.378;2022-10-16T08:37:42;93001.03;;;16.08;64.13
52249;BME280;38541;48.130;8.378;2022-10-16T08:40:25;93002.00;;;16.12;63.14
52249;BME280;38541;48.130;8.378;2022-10-16T08:48:45;93006.88;;;16.38;63.86
52249;BME280;38541;48.130;8.378;2022-10-16T08:51:19;93013.59;;;16.49;62.62
52249;BME280;38541;48.130;8.378;2022-10-16T08:53:54;93005.47;;;16.60;62.53
52249;BME280;38541;48.130;8.378;2022-10-16T08:56:22;93017.16;;;16.59;62.80
52249;BME280;38541;48.130;8.378;2022-10-16T08:58:49;93010.66;;;16.51;63.10
52249;BME280;38541;48.130;8.378;2022-10-16T09:01:22;93005.75;;;16.44;62.21
52249;BME280;38541;48.130;8.378;2022-10-16T09:04:03;93009.25;;;16.39;62.00
52249;BME280;38541;48.130;8.378;2022-10-16T09:15:35;93012.66;;;16.73;60.96
52249;BME280;38541;48.130;8.378;2022-10-16T09:21:26;93019.75;;;16.92;60.87
52249;BME280;38541;48.130;8.378;2022-10-16T09:23:58;93021.78;;;16.95;59.87
52249;BME280;38541;48.130;8.378;2022-10-16T09:26:25;93031.34;;;16.96;61.14
52249;BME280;38541;48.130;8.378;2022-10-16T09:28:53;93021.50;;;16.96;61.16
52249;BME280;38541;48.130;8.378;2022-10-16T09:31:21;93022.31;;;16.97;61.18
52249;BME280;38541;48.130;8.378;2022-10-16T09:34:00;93032.41;;;16.95;61.20
52249;BME280;38541;48.130;8.378;2022-10-16T09:36:40;93036.09;;;16.99;61.19
52249;BME280;38541;48.130;8.378;2022-10-16T09:39:11;93037.28;;;17.07;61.01
52249;BME280;38541;48.130;8.378;2022-10-16T09:41:41;93033.72;;;17.11;62.07
52249;BME280;38541;48.130;8.378;2022-10-16T09:44:36;93036.69;;;17.24;62.25
52249;BME280;38541;48.130;8.378;2022-10-16T09:47:04;93036.50;;;17.34;63.39
52249;BME280;38541;48.130;8.378;2022-10-16T09:49:30;93031.56;;;17.42;64.44
52249;BME280;38541;48.130;8.378;2022-10-16T09:52:13;93033.13;;;17.43;67.70
52249;BME280;38541;48.130;8.378;2022-10-16T09:54:58;93032.31;;;17.42;69.20
52249;BME280;38541;48.130;8.378;2022-10-16T09:57:26;93040.41;;;17.37;70.30
52249;BME280;38541;48.130;8.378;2022-10-16T09:59:55;93043.91;;;17.60;70.76
52249;BME280;38541;48.130;8.378;2022-10-16T10:02:35;93040.34;;;17.79;69.33
52249;BME280;38541;48.130;8.378;2022-10-16T10:05:05;93052.75;;;17.83;69.07
52249;BME280;38541;48.130;8.378;2022-10-16T10:07:37;93043.78;;;18.16;69.61
52249;BME280;38541;48.130;8.378;2022-10-16T10:10:18;93044.66;;;18.48;70.01
52249;BME280;38541;48.130;8.378;2022-10-16T10:12:45;93048.53;;;18.74;68.42
52249;BME280;38541;48.130;8.378;2022-10-16T10:15:13;93047.97;;;18.86;63.94
52249;BME280;38541;48.130;8.378;2022-10-16T10:17:56;93039.59;;;19.01;64.57
52249;BME280;38541;48.130;8.378;2022-10-16T10:20:35;93046.56;;;19.20;62.94
52249;BME280;38541;48.130;8.378;2022-10-16T10:23:21;93046.00;;;19.49;65.42
52249;BME280;38541;48.130;8.378;2022-10-16T10:28:52;93039.38;;;19.96;59.95
52249;BME280;38541;48.130;8.378;2022-10-16T10:31:25;93044.72;;;20.05;61.43
52249;BME280;38541;48.130;8.378;2022-10-16T10:36:38;93048.63;;;20.16;53.69
52249;BME280;38541;48.130;8.378;2022-10-16T10:39:18;93052.06;;;20.26;50.03
52249;BME280;38541;48.130;8.378;2022-10-16T10:44:59;93046.53;;;20.57;50.04
52249;BME280;38541;48.130;8.378;2022-10-16T10:47:46;93037.88;;;20.69;48.86
52249;BME280;38541;48.130;8.378;2022-10-16T10:50:28;93046.97;;;20.86;46.35
52249;BME280;38541;48.130;8.378;2022-10-16T10:55:39;93044.63;;;21.23;48.50
52249;BME280;38541;48.130;8.378;2022-10-16T10:58:29;93047.66;;;21.13;46.46
52249;BME280;38541;48.130;8.378;2022-10-16T11:06:33;93047.91;;;20.90;45.74
52249;BME280;38541;48.130;8.378;2022-10-16T11:09:13;93049.63;;;20.94;45.05
52249;BME280;38541;48.130;8.378;2022-10-16T11:11:48;93041.59;;;20.94;45.53
52249;BME280;38541;48.130;8.378;2022-10-16T11:14:21;93043.69;;;21.28;45.54
52249;BME280;38541;48.130;8.378;2022-10-16T11:17:23;93038.25;;;21.45;45.55
52249;BME280;38541;48.130;8.378;2022-10-16T11:20:02;93037.81;;;21.64;43.74
52249;BME280;38541;48.130;8.378;2022-10-16T11:22:34;93038.84;;;21.81;44.42
52249;BME280;38541;48.130;8.378;2022-10-16T11:25:13;93039.50;;;21.78;43.73
52249;BME280;38541;48.130;8.378;2022-10-16T11:27:44;93037.94;;;22.19;45.77
52249;BME280;38541;48.130;8.378;2022-10-16T11:30:22;93028.13;;;22.23;42.42
52249;BME280;38541;48.130;8.378;2022-10-16T11:33:04;93027.75;;;22.68;45.72
52249;BME280;38541;48.130;8.378;2022-10-16T11:35:47;93034.13;;;22.75;43.05
52249;BME280;38541;48.130;8.378;2022-10-16T11:38:36;93025.50;;;23.03;42.41
52249;BME280;38541;48.130;8.378;2022-10-16T11:41:18;93023.50;;;23.37;39.77
52249;BME280;38541;48.130;8.378;2022-10-16T11:43:52;93015.66;;;23.20;41.83
52249;BME280;38541;48.130;8.378;2022-10-16T11:46:24;93017.69;;;23.23;43.21
52249;BME280;38541;48.130;8.378;2022-10-16T11:49:18;93017.53;;;23.07;39.75
52249;BME280;38541;48.130;8.378;2022-10-16T11:54:37;93023.91;;;22.90;41.85
52249;BME280;38541;48.130;8.378;2022-10-16T11:57:16;93020.38;;;23.23;43.29
52249;BME280;38541;48.130;8.378;2022-10-16T12:02:52;93011.31;;;23.15;39.84
52249;BME280;38541;48.130;8.378;2022-10-16T12:05:25;93011.31;;;23.15;42.81
52249;BME280;38541;48.130;8.378;2022-10-16T12:08:06;93006.97;;;23.35;49.83
52249;BME280;38541;48.130;8.378;2022-10-16T12:10:35;93010.34;;;23.45;51.58
52249;BME280;38541;48.130;8.378;2022-10-16T12:13:25;93013.56;;;23.50;52.55
52249;BME280;38541;48.130;8.378;2022-10-16T12:15:51;93009.41;;;23.65;52.55
52249;BME280;38541;48.130;8.378;2022-10-16T12:18:25;93013.16;;;23.89;52.71
52249;BME280;38541;48.130;8.378;2022-10-16T12:20:58;93014.94;;;23.98;51.26
52249;BME280;38541;48.130;8.378;2022-10-16T12:23:32;93007.66;;;24.11;51.90
52249;BME280;38541;48.130;8.378;2022-10-16T12:26:00;93012.47;;;24.05;50.98
52249;BME280;38541;48.130;8.378;2022-10-16T12:28:30;93010.16;;;23.78;51.72
52249;BME280;38541;48.130;8.378;2022-10-16T12:31:05;93015.50;;;24.03;52.36
52249;BME280;38541;48.130;8.378;2022-10-16T12:33:34;93016.34;;;24.20;52.00
52249;BME280;38541;48.130;8.378;2022-10-16T12:36:11;93011.66;;;24.45;50.68
52249;BME280;38541;48.130;8.378;2022-10-16T12:38:50;93017.06;;;24.33;48.83
52249;BME280;38541;48.130;8.378;2022-10-16T12:41:35;93016.72;;;24.63;50.88
52249;BME280;38541;48.130;8.378;2022-10-16T12:44:02;93020.41;;;24.87;49.42
52249;BME280;38541;48.130;8.378;2022-10-16T12:51:55;93019.44;;;24.79;49.38
52249;BME280;38541;48.130;8.378;2022-10-16T12:54:27;93015.91;;;24.91;48.92
52249;BME280;38541;48.130;8.378;2022-10-16T13:11:56;93027.19;;;25.45;47.65
52249;BME280;38541;48.130;8.378;2022-10-16T13:14:41;93023.56;;;25.53;46.85
52249;BME280;38541;48.130;8.378;2022-10-16T13:28:47;93004.94;;;25.80;47.96
52249;BME280;38541;48.130;8.378;2022-10-16T13:31:22;93011.38;;;25.95;46.04
52249;BME280;38541;48.130;8.378;2022-10-16T13:33:56;93000.56;;;26.11;44.88
52249;BME280;38541;48.130;8.378;2022-10-16T13:36:33;92999.44;;;26.12;45.41
52249;BME280;38541;48.130;8.378;2022-10-16T13:39:22;93012.38;;;25.87;46.62
52249;BME280;38541;48.130;8.378;2022-10-16T13:42:04;93011.53;;;25.67;46.62
52249;BME280;38541;48.130;8.378;2022-10-16T13:44:47;93011.44;;;25.79;46.14
52249;BME280;38541;48.130;8.378;2022-10-16T13:47:17;93020.75;;;25.66;44.96
52249;BME280;38541;48.130;8.378;2022-10-16T13:49:44;93019.31;;;25.52;45.31
52249;BME280;38541;48.130;8.378;2022-10-16T13:52:20;93024.34;;;25.21;45.79
52249;BME280;38541;48.130;8.378;2022-10-16T13:54:47;93026.75;;;25.11;45.77
52249;BME280;38541;48.130;8.378;2022-10-16T13:57:15;93027.44;;;25.40;44.78
52249;BME280;38541;48.130;8.378;2022-10-16T13:59:52;93023.84;;;27.25;42.34
52249;BME280;38541;48.130;8.378;2022-10-16T14:02:26;93026.44;;;29.36;36.19
52249;BME280;38541;48.130;8.378;2022-10-16T14:04:54;93024.16;;;28.96;37.74
52249;BME280;38541;48.130;8.378;2022-10-16T14:07:25;93027.94;;;29.29;36.21
52249;BME280;38541;48.130;8.378;2022-10-16T14:09:54;93027.22;;;28.91;37.11
52249;BME280;38541;48.130;8.378;2022-10-16T14:12:22;93029.47;;;27.90;39.89
52249;BME280;38541;48.130;8.378;2022-10-16T14:14:54;93016.81;;;27.44;39.54
52249;BME280;38541;48.130;8.378;2022-10-16T14:17:25;93028.69;;;27.62;40.09
52249;BME280;38541;48.130;8.378;2022-10-16T14:19:55;93028.03;;;29.40;37.22
52249;BME280;38541;48.130;8.378;2022-10-16T14:22:42;93028.75;;;28.92;36.38
52249;BME280;38541;48.130;8.378;2022-10-16T14:27:45;93036.56;;;29.98;35.19
52249;BME280;38541;48.130;8.378;2022-10-16T14:30:19;93043.91;;;30.75;33.23
52249;BME280;38541;48.130;8.378;2022-10-16T14:32:55;93035.19;;;30.30;34.63
52249;BME280;38541;48.130;8.378;2022-10-16T14:35:31;93032.69;;;28.64;36.64
52249;BME280;38541;48.130;8.378;2022-10-16T14:37:59;93035.50;;;27.56;38.12
52249;BME280;38541;48.130;8.378;2022-10-16T14:40:35;93030.56;;;27.12;39.29
52249;BME280;38541;48.130;8.378;2022-10-16T14:43:04;93030.72;;;26.99;39.47
52249;BME280;38541;48.130;8.378;2022-10-16T14:45:33;93034.44;;;26.71;40.81